createdAt,value
2019-04-26T00:01:00.293Z,3.00
2019-04-26T00:03:36.290Z,2.70
2019-04-26T00:06:05.260Z,2.93
2019-04-26T00:08:32.849Z,2.70
2019-04-26T00:11:06.847Z,2.80
2019-04-26T00:13:47.623Z,2.83
2019-04-26T00:16:25.943Z,2.80
2019-04-26T00:18:53.144Z,2.70
2019-04-26T00:21:20.195Z,2.50
2019-04-26T00:23:47.668Z,2.77
2019-04-26T00:26:15.521Z,2.90
2019-04-26T00:28:42.595Z,2.60
2019-04-26T00:31:11.420Z,2.67
2019-04-26T00:33:38.612Z,2.70
2019-04-26T00:36:05.655Z,2.60
2019-04-26T00:38:32.711Z,2.50
2019-04-26T00:41:00.108Z,2.63
2019-04-26T00:43:27.823Z,2.70
2019-04-26T00:45:57.328Z,2.60
2019-04-26T00:48:25.054Z,2.77
2019-04-26T00:50:53.855Z,2.63
2019-04-26T00:53:22.549Z,2.90
2019-04-26T00:55:50.483Z,2.90
2019-04-26T00:58:18.726Z,3.17
2019-04-26T01:00:46.115Z,3.37
2019-04-26T01:03:15.172Z,2.67
2019-04-26T01:05:42.331Z,3.27
2019-04-26T01:08:10.584Z,3.17
2019-04-26T01:10:37.648Z,3.03
2019-04-26T01:13:04.695Z,3.30
2019-04-26T01:15:33.043Z,3.07
2019-04-26T01:18:00.191Z,3.47
2019-04-26T01:20:31.061Z,3.00
2019-04-26T01:23:01.916Z,3.07
2019-04-26T01:25:53.563Z,3.00
2019-04-26T01:28:28.562Z,2.93
2019-04-26T01:30:57.044Z,3.00
2019-04-26T01:33:24.295Z,3.20
2019-04-26T01:35:52.555Z,3.50
2019-04-26T01:38:20.718Z,3.30
2019-04-26T01:40:53.536Z,3.20
2019-04-26T01:43:39.423Z,3.30
2019-04-26T01:46:12.856Z,3.53
2019-04-26T01:48:49.063Z,3.50
2019-04-26T01:51:26.609Z,3.23
2019-04-26T01:53:54.079Z,3.10
2019-04-26T01:56:27.120Z,3.27
2019-04-26T01:58:54.424Z,3.20
2019-04-26T02:01:29.515Z,3.60
2019-04-26T02:03:56.855Z,3.27
2019-04-26T02:06:29.060Z,3.47
2019-04-26T02:08:53.660Z,3.23
2019-04-26T02:11:20.940Z,3.40
2019-04-26T02:13:48.183Z,3.50
2019-04-26T02:16:15.338Z,3.30
2019-04-26T02:18:42.695Z,3.37
2019-04-26T02:21:16.555Z,3.63
2019-04-26T02:23:50.158Z,3.27
2019-04-26T02:26:40.728Z,3.20
2019-04-26T02:29:13.663Z,3.40
2019-04-26T02:31:43.382Z,3.50
2019-04-26T02:34:11.167Z,3.70
2019-04-26T02:36:56.147Z,3.63
2019-04-26T02:39:16.554Z,3.60
2019-04-26T02:41:44.927Z,3.57
2019-04-26T02:44:12.587Z,3.60
2019-04-26T02:46:49.079Z,3.77
2019-04-26T02:49:27.357Z,3.50
2019-04-26T02:52:17.958Z,3.70
2019-04-26T02:55:11.634Z,3.90
2019-04-26T02:57:49.584Z,3.60
2019-04-26T03:00:18.790Z,3.40
2019-04-26T03:02:52.740Z,3.47
2019-04-26T03:05:20.605Z,3.47
2019-04-26T03:08:12.715Z,3.73
2019-04-26T03:11:04.248Z,3.67
2019-04-26T03:13:44.959Z,3.97
2019-04-26T03:16:28.796Z,4.00
2019-04-26T03:19:07.637Z,3.73
2019-04-26T03:21:54.181Z,3.90
2019-04-26T03:24:27.478Z,3.60
2019-04-26T03:27:35.950Z,3.53
2019-04-26T03:30:21.647Z,3.90
2019-04-26T03:33:14.078Z,3.77
2019-04-26T03:36:17.173Z,3.67
2019-04-26T03:39:06.194Z,3.70
2019-04-26T03:42:02.264Z,3.37
2019-04-26T03:44:42.062Z,4.10
2019-04-26T03:47:14.827Z,3.80
2019-04-26T03:49:55.051Z,3.93
2019-04-26T03:52:52.856Z,3.63
2019-04-26T03:55:56.700Z,3.77
2019-04-26T03:58:35.892Z,4.10
2019-04-26T04:01:09.179Z,4.13
2019-04-26T04:03:55.056Z,4.43
2019-04-26T04:06:28.052Z,4.20
2019-04-26T04:09:05.367Z,4.83
2019-04-26T04:11:41.884Z,4.30
2019-04-26T04:14:34.289Z,4.30
2019-04-26T04:17:39.589Z,4.37
2019-04-26T04:20:30.954Z,4.43
2019-04-26T04:23:11.797Z,4.60
2019-04-26T04:25:47.234Z,4.43
2019-04-26T04:28:27.411Z,4.33
2019-04-26T04:31:16.360Z,4.63
2019-04-26T04:34:05.612Z,4.47
2019-04-26T04:36:44.523Z,4.87
2019-04-26T04:39:21.749Z,4.37
2019-04-26T04:42:05.235Z,4.80
2019-04-26T04:45:07.790Z,5.00
2019-04-26T04:47:52.511Z,4.60
2019-04-26T04:50:52.520Z,5.40
2019-04-26T04:53:43.434Z,4.57
2019-04-26T04:57:00.220Z,4.60
2019-04-26T04:59:42.155Z,4.30
2019-04-26T05:02:46.569Z,4.80
2019-04-26T05:05:44.946Z,5.00
2019-04-26T05:08:33.332Z,4.67
2019-04-26T05:11:13.571Z,5.07
2019-04-26T05:13:46.380Z,5.30
2019-04-26T05:16:50.446Z,5.00
2019-04-26T05:19:41.255Z,4.67
2019-04-26T05:22:47.231Z,4.77
2019-04-26T05:26:32.779Z,5.00
2019-04-26T05:29:17.184Z,5.40
2019-04-26T05:31:59.779Z,5.03
2019-04-26T05:34:49.082Z,5.23
2019-04-26T05:37:41.624Z,5.10
2019-04-26T05:40:48.616Z,5.47
2019-04-26T05:44:05.045Z,5.60
2019-04-26T05:47:10.756Z,5.30
2019-04-26T05:50:26.498Z,5.40
2019-04-26T05:54:05.727Z,5.53
2019-04-26T05:57:03.102Z,5.50
2019-04-26T05:59:52.322Z,5.80
2019-04-26T06:03:03.138Z,6.03
2019-04-26T06:06:15.644Z,6.17
2019-04-26T06:09:23.683Z,5.50
2019-04-26T06:12:02.099Z,6.17
2019-04-26T06:15:04.983Z,6.40
2019-04-26T06:18:02.138Z,6.53
2019-04-26T06:21:17.463Z,6.03
2019-04-26T06:24:05.371Z,6.40
2019-04-26T06:27:13.368Z,6.90
2019-04-26T06:29:59.762Z,6.77
2019-04-26T06:32:42.532Z,6.53
2019-04-26T06:35:20.033Z,7.40
2019-04-26T06:38:14.939Z,7.30
2019-04-26T06:41:26.479Z,7.00
2019-04-26T06:44:02.701Z,7.70
2019-04-26T06:46:56.274Z,7.13
2019-04-26T06:49:59.891Z,7.27
2019-04-26T06:52:31.051Z,7.40
2019-04-26T06:55:24.788Z,7.53
2019-04-26T06:58:12.961Z,7.20
2019-04-26T07:01:13.152Z,7.67
2019-04-26T07:04:08.606Z,7.47
2019-04-26T07:06:51.323Z,8.03
2019-04-26T07:09:22.183Z,7.87
2019-04-26T07:12:28.966Z,7.67
2019-04-26T07:15:29.117Z,8.07
2019-04-26T07:18:37.617Z,8.13
2019-04-26T07:21:19.835Z,8.00
2019-04-26T07:24:27.955Z,8.23
2019-04-26T07:27:16.851Z,8.23
2019-04-26T07:29:57.347Z,8.17
2019-04-26T07:33:02.391Z,7.87
2019-04-26T07:35:55.384Z,8.03
2019-04-26T07:39:18.460Z,8.13
2019-04-26T07:42:20.303Z,7.93
2019-04-26T07:45:24.723Z,7.80
2019-04-26T07:48:28.831Z,7.70
2019-04-26T07:51:44.085Z,7.10
2019-04-26T07:54:52.599Z,6.93
2019-04-26T07:57:47.203Z,7.20
2019-04-26T08:00:17.727Z,7.30
2019-04-26T08:03:06.876Z,8.00
2019-04-26T08:05:50.919Z,7.07
2019-04-26T08:08:20.871Z,7.10
2019-04-26T08:11:07.242Z,6.30
2019-04-26T08:13:40.124Z,6.80
2019-04-26T08:16:39.075Z,6.80
2019-04-26T08:19:12.611Z,6.90
2019-04-26T08:21:48.000Z,6.60
2019-04-26T08:24:23.494Z,6.00
2019-04-26T08:27:08.663Z,6.60
2019-04-26T08:29:35.756Z,6.43
2019-04-26T08:32:09.819Z,6.50
2019-04-26T08:34:42.004Z,6.20
2019-04-26T08:37:21.813Z,6.20
2019-04-26T08:39:51.923Z,5.83
2019-04-26T08:42:24.574Z,6.30
2019-04-26T08:45:12.472Z,6.60
2019-04-26T08:48:02.103Z,5.90
2019-04-26T08:50:34.135Z,5.97
2019-04-26T08:53:02.309Z,6.00
2019-04-26T08:55:32.688Z,5.77
2019-04-26T08:58:05.708Z,5.63
2019-04-26T09:00:45.925Z,6.00
2019-04-26T09:03:23.656Z,5.70
2019-04-26T09:06:13.243Z,5.87
2019-04-26T09:08:45.123Z,5.93
2019-04-26T09:11:25.428Z,5.97
2019-04-26T09:13:46.918Z,6.07
2019-04-26T09:16:17.160Z,5.50
2019-04-26T09:18:52.669Z,5.47
2019-04-26T09:21:19.263Z,5.80
2019-04-26T09:24:09.292Z,5.77
2019-04-26T09:26:42.636Z,6.03
2019-04-26T09:29:19.042Z,6.00
2019-04-26T09:31:50.505Z,6.03
2019-04-26T09:34:17.751Z,6.20
2019-04-26T09:36:45.045Z,6.40
2019-04-26T09:39:14.017Z,6.93
2019-04-26T09:41:41.093Z,5.93
2019-04-26T09:44:26.901Z,6.43
2019-04-26T09:47:08.748Z,6.50
2019-04-26T09:49:41.185Z,6.00
2019-04-26T09:52:15.503Z,5.77
2019-04-26T09:54:42.555Z,5.73
2019-04-26T09:57:09.729Z,6.20
2019-04-26T09:59:40.020Z,6.20
2019-04-26T10:02:06.749Z,6.20
2019-04-26T10:04:33.811Z,6.03
2019-04-26T10:07:03.223Z,6.27
2019-04-26T10:09:31.038Z,6.23
2019-04-26T10:12:03.840Z,5.90
2019-04-26T10:14:38.571Z,6.00
2019-04-26T10:17:15.817Z,5.90
2019-04-26T10:19:48.276Z,6.17
2019-04-26T10:22:15.590Z,6.17
2019-04-26T10:24:42.674Z,5.73
2019-04-26T10:27:09.824Z,6.20
2019-04-26T10:29:37.095Z,6.20
2019-04-26T10:32:04.351Z,5.50
2019-04-26T10:34:31.556Z,5.80
2019-04-26T10:37:01.515Z,5.37
2019-04-26T10:39:32.404Z,4.57
2019-04-26T10:41:59.374Z,4.50
2019-04-26T10:44:26.431Z,4.70
2019-04-26T10:46:55.678Z,5.37
2019-04-26T10:49:36.768Z,4.57
2019-04-26T10:52:05.292Z,3.97
2019-04-26T10:54:32.688Z,3.60
2019-04-26T10:57:04.610Z,3.37
2019-04-26T10:59:44.003Z,3.67
2019-04-26T11:02:12.156Z,4.10
2019-04-26T11:04:41.401Z,3.37
2019-04-26T11:07:08.268Z,3.50
2019-04-26T11:09:35.331Z,3.53
2019-04-26T11:12:04.394Z,3.70
2019-04-26T11:14:31.483Z,3.70
2019-04-26T11:16:58.954Z,4.27
2019-04-26T11:19:26.141Z,3.93
2019-04-26T11:21:54.816Z,4.30
2019-04-26T11:24:22.211Z,3.93
2019-04-26T11:26:49.466Z,3.83
2019-04-26T11:29:16.557Z,4.00
2019-04-26T11:31:43.816Z,3.37
2019-04-26T11:34:10.913Z,2.67
2019-04-26T11:36:41.777Z,3.00
2019-04-26T11:39:10.775Z,3.03
2019-04-26T11:41:39.183Z,3.37
2019-04-26T11:44:06.320Z,2.87
2019-04-26T11:46:44.216Z,3.30
2019-04-26T11:49:03.127Z,3.27
2019-04-26T11:51:31.434Z,3.03
2019-04-26T11:53:58.619Z,2.87
2019-04-26T11:56:26.127Z,2.87
2019-04-26T11:58:56.797Z,2.73
2019-04-26T12:01:24.081Z,3.50
2019-04-26T12:04:25.979Z,3.27
2019-04-26T12:07:00.737Z,2.67
2019-04-26T12:09:32.547Z,2.90
2019-04-26T12:12:04.794Z,3.43
2019-04-26T12:14:29.588Z,3.30
2019-04-26T12:16:59.907Z,2.80
2019-04-26T12:19:26.598Z,2.17
2019-04-26T12:21:53.764Z,2.23
2019-04-26T12:24:21.192Z,2.70
2019-04-26T12:26:48.263Z,2.17
2019-04-26T12:29:15.639Z,2.80
2019-04-26T12:31:42.775Z,2.90
2019-04-26T12:34:09.845Z,3.10
2019-04-26T12:39:06.004Z,2.90
2019-04-26T12:41:40.205Z,3.20
2019-04-26T12:44:04.227Z,2.80
2019-04-26T12:46:43.419Z,2.30
2019-04-26T12:49:10.492Z,2.73
2019-04-26T12:51:38.401Z,2.70
2019-04-26T12:54:08.446Z,2.90
2019-04-26T12:56:34.885Z,2.13
2019-04-26T12:59:02.300Z,2.50
2019-04-26T13:01:29.372Z,2.43
2019-04-26T13:04:08.648Z,3.07
2019-04-26T13:06:42.179Z,2.30
2019-04-26T13:09:13.347Z,2.30
2019-04-26T13:12:01.432Z,2.50
2019-04-26T13:14:38.794Z,2.67
2019-04-26T13:17:09.623Z,2.63
2019-04-26T13:19:36.693Z,2.00
2019-04-26T13:22:03.847Z,1.90
2019-04-26T13:24:30.908Z,1.90
2019-04-26T13:26:57.967Z,2.57
2019-04-26T13:29:27.237Z,1.90
2019-04-26T13:31:53.987Z,2.17
2019-04-26T13:34:21.040Z,2.10
2019-04-26T13:36:48.527Z,2.10
2019-04-26T13:39:17.907Z,2.07
2019-04-26T13:41:44.930Z,2.00
2019-04-26T13:44:12.000Z,2.10
2019-04-26T13:46:49.492Z,2.20
2019-04-26T13:49:31.899Z,2.00
2019-04-26T13:51:58.963Z,1.90
2019-04-26T13:54:26.011Z,2.00
2019-04-26T13:56:53.080Z,2.20
2019-04-26T13:59:20.127Z,2.10
2019-04-26T14:01:47.195Z,2.20
2019-04-26T14:04:14.379Z,2.13
2019-04-26T14:06:41.524Z,2.20
2019-04-26T14:09:10.636Z,2.40
2019-04-26T14:11:39.640Z,2.20
2019-04-26T14:14:06.900Z,2.10
2019-04-26T14:16:34.052Z,2.00
2019-04-26T14:19:01.628Z,2.20
2019-04-26T14:21:29.132Z,2.20
2019-04-26T14:24:35.535Z,2.00
2019-04-26T14:27:10.551Z,1.90
2019-04-26T14:29:36.163Z,1.97
2019-04-26T14:32:03.340Z,1.67
2019-04-26T14:34:30.504Z,1.53
2019-04-26T14:37:06.371Z,1.67
2019-04-26T14:39:35.292Z,1.93
2019-04-26T14:41:57.061Z,2.07
2019-04-26T14:44:27.173Z,1.93
2019-04-26T14:46:56.847Z,1.80
2019-04-26T14:49:23.429Z,1.87
2019-04-26T14:51:55.972Z,1.90
2019-04-26T14:54:20.745Z,1.87
2019-04-26T14:56:52.393Z,1.77
2019-04-26T14:59:39.396Z,1.90
2019-04-26T15:02:37.352Z,1.67
2019-04-26T15:05:14.007Z,1.87
2019-04-26T15:07:49.442Z,1.87
2019-04-26T15:10:10.927Z,1.80
2019-04-26T15:12:46.099Z,1.83
2019-04-26T15:15:08.294Z,1.80
2019-04-26T15:17:35.440Z,1.83
2019-04-26T15:20:03.343Z,1.63
2019-04-26T15:22:30.463Z,2.03
2019-04-26T15:24:58.063Z,1.77
2019-04-26T15:27:25.131Z,1.77
2019-04-26T15:29:52.570Z,1.83
2019-04-26T15:32:19.670Z,1.93
2019-04-26T15:34:46.730Z,1.80
2019-04-26T15:37:16.051Z,1.67
2019-04-26T15:39:58.255Z,1.60
2019-04-26T15:42:45.063Z,1.40
2019-04-26T15:45:17.851Z,1.50
2019-04-26T15:47:57.711Z,1.60
2019-04-26T15:50:29.259Z,1.50
2019-04-26T15:52:56.335Z,1.60
2019-04-26T15:55:23.589Z,1.57
2019-04-26T15:57:50.643Z,1.40
2019-04-26T16:00:18.507Z,1.40
2019-04-26T16:02:45.573Z,1.37
2019-04-26T16:05:12.648Z,1.00
2019-04-26T16:07:39.701Z,1.37
2019-04-26T16:10:06.964Z,1.60
2019-04-26T16:12:34.115Z,1.33
2019-04-26T16:15:02.421Z,1.33
2019-04-26T16:17:29.643Z,1.50
2019-04-26T16:20:00.156Z,1.30
2019-04-26T16:22:29.963Z,1.30
2019-04-26T16:24:58.241Z,1.77
2019-04-26T16:27:24.592Z,1.30
2019-04-26T16:30:12.867Z,1.37
2019-04-26T16:33:03.750Z,1.10
2019-04-26T16:35:32.413Z,1.10
2019-04-26T16:38:20.036Z,1.50
2019-04-26T16:40:50.764Z,1.40
2019-04-26T16:43:26.863Z,1.40
2019-04-26T16:45:45.679Z,1.50
2019-04-26T16:48:12.986Z,1.30
2019-04-26T16:50:44.223Z,1.57
2019-04-26T16:53:36.907Z,1.17
2019-04-26T16:55:49.155Z,1.20
2019-04-26T16:58:07.197Z,1.40
2019-04-26T17:00:50.420Z,1.20
2019-04-26T17:03:07.756Z,1.07
2019-04-26T17:05:47.457Z,1.10
2019-04-26T17:08:05.050Z,1.30
2019-04-26T17:10:30.635Z,1.20
2019-04-26T17:12:57.799Z,1.23
2019-04-26T17:15:24.861Z,1.30
2019-04-26T17:17:52.704Z,1.30
2019-04-26T17:20:19.905Z,1.40
2019-04-26T17:23:24.000Z,1.73
2019-04-26T17:26:04.006Z,1.60
2019-04-26T17:28:32.545Z,1.80
2019-04-26T17:30:59.927Z,1.80
2019-04-26T17:33:28.146Z,1.80
2019-04-26T17:35:55.964Z,1.90
2019-04-26T17:38:23.384Z,1.90
2019-04-26T17:40:50.643Z,2.13
2019-04-26T17:43:17.703Z,2.30
2019-04-26T17:45:44.875Z,2.10
2019-04-26T17:48:14.164Z,2.77
2019-04-26T17:50:42.354Z,1.97
2019-04-26T17:53:10.609Z,2.30
2019-04-26T17:55:38.534Z,2.00
2019-04-26T17:58:11.806Z,2.30
2019-04-26T18:00:45.460Z,1.77
2019-04-26T18:03:07.602Z,1.90
2019-04-26T18:05:55.881Z,2.03
2019-04-26T18:08:30.605Z,1.97
2019-04-26T18:10:35.587Z,2.37
2019-04-26T18:13:01.407Z,2.30
2019-04-26T18:15:29.885Z,6.67
2019-04-26T18:18:17.542Z,3.10
2019-04-26T18:21:05.222Z,2.30
2019-04-26T18:23:33.899Z,2.20
2019-04-26T18:26:03.261Z,2.50
2019-04-26T18:28:30.863Z,1.87
2019-04-26T18:30:57.943Z,1.97
2019-04-26T18:33:26.068Z,2.20
2019-04-26T18:35:57.292Z,2.10
2019-04-26T18:38:22.918Z,1.90
2019-04-26T18:41:01.238Z,2.13
2019-04-26T18:43:24.044Z,1.90
2019-04-26T18:45:51.129Z,2.10
2019-04-26T18:48:18.196Z,2.53
2019-04-26T18:50:46.049Z,1.97
2019-04-26T18:53:36.612Z,2.13
2019-04-26T18:56:03.472Z,2.10
2019-04-26T18:58:30.323Z,2.10
2019-04-26T19:01:01.593Z,2.10
2019-04-26T19:03:30.149Z,2.40
2019-04-26T19:05:58.500Z,2.30
2019-04-26T19:08:27.389Z,2.27
2019-04-26T19:11:01.153Z,2.50
2019-04-26T19:13:38.109Z,1.90
2019-04-26T19:16:27.892Z,2.80
2019-04-26T19:19:03.163Z,2.83
2019-04-26T19:21:38.847Z,2.60
2019-04-26T19:24:07.244Z,2.80
2019-04-26T19:26:35.129Z,3.03
2019-04-26T19:29:09.928Z,2.63
2019-04-26T19:31:31.972Z,2.47
2019-04-26T19:33:59.034Z,2.07
2019-04-26T19:36:29.207Z,2.20
2019-04-26T19:38:55.927Z,2.10
2019-04-26T19:41:25.213Z,1.93
2019-04-26T19:43:52.176Z,2.10
2019-04-26T19:46:45.267Z,2.10
2019-04-26T19:49:26.005Z,7.40
2019-04-26T19:52:03.887Z,2.40
2019-04-26T19:54:38.354Z,1.70
2019-04-26T19:57:07.629Z,1.50
2019-04-26T19:59:35.007Z,1.80
2019-04-26T20:02:02.656Z,1.90
2019-04-26T20:04:33.457Z,1.87
2019-04-26T20:06:58.783Z,1.80
2019-04-26T20:09:26.681Z,1.80
2019-04-26T20:11:57.867Z,1.87
2019-04-26T20:14:39.488Z,1.97
2019-04-26T20:16:52.491Z,1.70
2019-04-26T20:19:32.384Z,1.43
2019-04-26T20:21:49.667Z,1.60
2019-04-26T20:24:19.386Z,1.77
2019-04-26T20:26:48.678Z,1.90
2019-04-26T20:29:15.840Z,1.80
2019-04-26T20:31:53.785Z,1.43
2019-04-26T20:34:21.837Z,1.80
2019-04-26T20:36:49.201Z,2.20
2019-04-26T20:39:20.995Z,1.90
2019-04-26T20:41:45.872Z,1.90
2019-04-26T20:44:12.919Z,1.70
2019-04-26T20:46:40.003Z,1.50
2019-04-26T20:49:09.092Z,1.80
2019-04-26T20:51:36.047Z,1.53
2019-04-26T20:54:03.851Z,1.83
2019-04-26T20:56:31.742Z,1.70
2019-04-26T20:58:59.122Z,2.00
2019-04-26T21:01:26.175Z,1.83
2019-04-26T21:03:53.223Z,1.87
2019-04-26T21:06:22.210Z,1.80
2019-04-26T21:08:49.777Z,2.10
2019-04-26T21:11:17.043Z,2.00
2019-04-26T21:13:44.108Z,1.50
2019-04-26T21:16:15.254Z,1.97
2019-04-26T21:18:44.004Z,1.83
2019-04-26T21:21:10.463Z,2.00
2019-04-26T21:23:39.809Z,1.90
2019-04-26T21:26:17.527Z,1.80
2019-04-26T21:29:07.900Z,1.97
2019-04-26T21:31:41.027Z,1.87
2019-04-26T21:34:15.144Z,1.93
2019-04-26T21:37:11.344Z,1.77
2019-04-26T21:40:16.998Z,1.73
2019-04-26T21:42:43.468Z,1.80
2019-04-26T21:45:12.159Z,1.90
2019-04-26T21:47:39.212Z,1.93
2019-04-26T21:50:06.903Z,2.00
2019-04-26T21:52:34.374Z,1.90
2019-04-26T21:55:01.624Z,2.00
2019-04-26T21:57:31.590Z,1.90
2019-04-26T21:59:57.639Z,1.83
2019-04-26T22:02:25.496Z,1.83
2019-04-26T22:04:53.211Z,1.73
2019-04-26T22:07:20.339Z,1.70
2019-04-26T22:09:57.341Z,1.90
2019-04-26T22:12:27.357Z,1.80
2019-04-26T22:15:03.504Z,2.00
2019-04-26T22:17:40.368Z,2.00
2019-04-26T22:20:23.421Z,2.00
2019-04-26T22:23:11.536Z,2.33
2019-04-26T22:25:40.079Z,1.80
2019-04-26T22:28:07.145Z,2.33
2019-04-26T22:30:34.295Z,2.43
2019-04-26T22:33:03.026Z,2.27
2019-04-26T22:35:30.304Z,2.50
2019-04-26T22:37:57.352Z,2.00
2019-04-26T22:40:24.407Z,2.23
2019-04-26T22:42:56.793Z,2.20
2019-04-26T22:45:31.169Z,2.47
2019-04-26T22:48:01.228Z,2.33
2019-04-26T22:50:28.282Z,2.50
2019-04-26T22:52:55.324Z,2.30
2019-04-26T22:55:27.235Z,2.10
2019-04-26T22:57:53.033Z,2.50
2019-04-26T23:00:25.571Z,2.80
2019-04-26T23:02:50.892Z,3.50
2019-04-26T23:05:17.943Z,3.30
2019-04-26T23:07:45.107Z,3.13
2019-04-26T23:10:13.020Z,3.07
2019-04-26T23:12:53.913Z,2.90
2019-04-26T23:15:31.741Z,2.83
2019-04-26T23:18:23.820Z,3.13
2019-04-26T23:21:00.543Z,2.60
2019-04-26T23:23:27.692Z,2.73
2019-04-26T23:25:54.739Z,2.63
2019-04-26T23:28:21.803Z,2.60
2019-04-26T23:30:48.847Z,2.60
2019-04-26T23:33:16.131Z,2.60
2019-04-26T23:35:46.990Z,2.60
2019-04-26T23:38:13.464Z,2.43
2019-04-26T23:40:41.014Z,2.33
2019-04-26T23:43:08.075Z,2.30
2019-04-26T23:45:35.142Z,2.47
2019-04-26T23:48:03.551Z,2.23
2019-04-26T23:50:31.083Z,2.10
2019-04-26T23:52:58.129Z,2.60
2019-04-26T23:55:25.189Z,2.50
2019-04-26T23:57:53.486Z,2.47
